Time;durP1;ratioP1;P1;durP2;ratioP2;P2;SDS_P1;SDS_P2;PMS_P1;PMS_P2;Temp;Humidity;BMP_temperature;BMP_pressure;BME280_temperature;BME280_humidity;BME280_pressure;Samples;Min_cycle;Max_cycle;Signal;HPM_P1;HPM_P2
2022/09/25 00:02:04;;;;;;;17.17;15.37;;;;;;;;;;5052970;28;20247;-46
2022/09/25 00:04:32;;;;;;;19.47;17.47;;;;;;;;;;5053238;28;20627;-46
2022/09/25 00:06:58;;;;;;;18.27;16.53;;;;;;;;;;5053065;28;20209;-46
2022/09/25 00:09:24;;;;;;;18.67;16.70;;;;;;;;;;5053509;28;20203;-46
2022/09/25 00:11:50;;;;;;;18.33;16.47;;;;;;;;;;5053056;28;20532;-46
2022/09/25 00:14:16;;;;;;;20.50;18.40;;;;;;;;;;5053104;28;20227;-46
2022/09/25 00:16:42;;;;;;;21.90;17.97;;;;;;;;;;5052453;28;20292;-45
2022/09/25 00:19:52;;;;;;;19.13;17.30;;;;;;;;;;5052986;28;20243;-46
2022/09/25 00:22:00;;;;;;;20.53;18.57;;;;;;;;;;5042342;28;20236;-46
2022/09/25 00:24:26;;;;;;;20.00;18.00;;;;;;;;;;5051115;28;20200;-46
2022/09/25 00:26:52;;;;;;;23.33;20.60;;;;;;;;;;5050699;28;20207;-46
2022/09/25 00:29:19;;;;;;;23.50;21.07;;;;;;;;;;5052123;28;20234;-46
2022/09/25 00:31:45;;;;;;;20.50;18.30;;;;;;;;;;5052713;28;20244;-46
2022/09/25 00:34:11;;;;;;;20.60;18.60;;;;;;;;;;5052646;28;20200;-46
2022/09/25 00:36:37;;;;;;;20.83;18.83;;;;;;;;;;5049325;28;20203;-46
2022/09/25 00:39:05;;;;;;;19.77;17.77;;;;;;;;;;5052948;28;20275;-46
2022/09/25 00:41:31;;;;;;;19.47;17.47;;;;;;;;;;5052854;28;20228;-46
2022/09/25 00:43:58;;;;;;;20.03;18.00;;;;;;;;;;5052821;28;20287;-45
2022/09/25 00:46:27;;;;;;;20.73;18.63;;;;;;;;;;5052770;28;20695;-46
2022/09/25 00:48:55;;;;;;;18.90;17.00;;;;;;;;;;5052944;28;20200;-46
2022/09/25 00:51:27;;;;;;;18.23;16.43;;;;;;;;;;5052541;28;20193;-46
2022/09/25 00:53:53;;;;;;;18.23;16.43;;;;;;;;;;5052545;28;20659;-46
2022/09/25 00:56:20;;;;;;;18.03;16.20;;;;;;;;;;5052639;28;20291;-45
2022/09/25 00:58:46;;;;;;;18.63;16.83;;;;;;;;;;5052598;28;20196;-46
2022/09/25 01:01:12;;;;;;;17.67;15.90;;;;;;;;;;5052382;28;20228;-46
2022/09/25 01:03:40;;;;;;;17.47;15.87;;;;;;;;;;5052233;28;20196;-46
2022/09/25 01:06:07;;;;;;;17.93;16.17;;;;;;;;;;5052386;28;20211;-46
2022/09/25 01:08:34;;;;;;;16.53;14.90;;;;;;;;;;5052382;28;20286;-46
2022/09/25 01:11:00;;;;;;;18.80;17.07;;;;;;;;;;5052383;28;20219;-46
2022/09/25 01:13:28;;;;;;;19.37;17.47;;;;;;;;;;5052311;28;20200;-46
2022/09/25 01:15:57;;;;;;;18.27;16.50;;;;;;;;;;5050024;28;20204;-46
2022/09/25 01:18:31;;;;;;;17.80;16.00;;;;;;;;;;5051480;28;20196;-46
2022/09/25 01:21:05;;;;;;;17.60;15.83;;;;;;;;;;5052311;28;20206;-45
2022/09/25 01:23:43;;;;;;;17.27;15.63;;;;;;;;;;5052206;28;20518;-46
2022/09/25 01:26:18;;;;;;;17.00;15.23;;;;;;;;;;5052414;28;20386;-47
2022/09/25 01:28:50;;;;;;;17.57;15.67;;;;;;;;;;5052338;28;20567;-46
2022/09/25 01:31:18;;;;;;;16.43;14.73;;;;;;;;;;5052137;28;20263;-46
2022/09/25 01:33:46;;;;;;;17.97;16.30;;;;;;;;;;5052426;28;20228;-46
2022/09/25 01:36:14;;;;;;;17.53;15.70;;;;;;;;;;5052305;28;20196;-46
2022/09/25 01:38:43;;;;;;;17.17;15.50;;;;;;;;;;5052148;28;20223;-46
2022/09/25 01:41:11;;;;;;;16.47;14.27;;;;;;;;;;5052119;28;20274;-46
2022/09/25 01:43:40;;;;;;;15.73;14.23;;;;;;;;;;5052267;28;20283;-45
2022/09/25 01:46:11;;;;;;;17.10;14.20;;;;;;;;;;5051950;28;20203;-45
2022/09/25 01:48:39;;;;;;;15.83;14.23;;;;;;;;;;5052156;28;20311;-45
2022/09/25 01:51:07;;;;;;;14.63;13.13;;;;;;;;;;5051984;28;20208;-45
2022/09/25 01:53:36;;;;;;;15.73;12.87;;;;;;;;;;5052136;28;20294;-46
2022/09/25 01:56:05;;;;;;;13.27;11.83;;;;;;;;;;5051869;28;20283;-45
2022/09/25 01:58:50;;;;;;;12.43;11.13;;;;;;;;;;5052122;28;20283;-46
2022/09/25 02:01:21;;;;;;;12.27;10.77;;;;;;;;;;5051233;28;20231;-46
2022/09/25 02:03:50;;;;;;;15.77;12.17;;;;;;;;;;5051909;28;20283;-46
2022/09/25 02:06:18;;;;;;;11.47;10.27;;;;;;;;;;5051868;28;20224;-45
2022/09/25 02:08:47;;;;;;;12.47;10.00;;;;;;;;;;5051562;28;20680;-46
2022/09/25 02:11:13;;;;;;;13.43;9.47;;;;;;;;;;5051615;28;20239;-46
2022/09/25 02:13:43;;;;;;;15.70;10.90;;;;;;;;;;5051566;28;20286;-46
2022/09/25 02:16:10;;;;;;;12.73;8.90;;;;;;;;;;5051567;28;20216;-45
2022/09/25 02:21:26;;;;;;;13.53;7.90;;;;;;;;;;5051710;28;20226;-46
2022/09/25 02:23:53;;;;;;;7.73;6.87;;;;;;;;;;5051573;28;20200;-46
2022/09/25 02:26:24;;;;;;;12.67;7.60;;;;;;;;;;5051556;28;20196;-46
2022/09/25 02:28:52;;;;;;;15.57;7.70;;;;;;;;;;5051456;28;20196;-46
2022/09/25 02:31:20;;;;;;;12.00;7.00;;;;;;;;;;5051434;28;20267;-46
2022/09/25 02:33:47;;;;;;;10.87;6.73;;;;;;;;;;5051427;28;20208;-46
2022/09/25 02:36:16;;;;;;;11.50;7.03;;;;;;;;;;5051335;28;20283;-46
2022/09/25 02:38:42;;;;;;;7.80;6.97;;;;;;;;;;5051497;28;20259;-46
2022/09/25 02:41:13;;;;;;;12.90;7.00;;;;;;;;;;5053315;28;20216;-45
2022/09/25 02:43:45;;;;;;;10.47;7.33;;;;;;;;;;5055718;28;20279;-45
2022/09/25 02:46:16;;;;;;;10.17;7.23;;;;;;;;;;5055494;28;20195;-46
2022/09/25 02:48:48;;;;;;;11.60;7.20;;;;;;;;;;5055484;28;20287;-46
2022/09/25 02:51:19;;;;;;;11.30;7.17;;;;;;;;;;5055485;28;20196;-46
2022/09/25 02:53:48;;;;;;;10.60;6.90;;;;;;;;;;5055562;28;20303;-46
2022/09/25 02:56:19;;;;;;;11.47;6.90;;;;;;;;;;5055097;28;20192;-46
2022/09/25 02:58:47;;;;;;;10.60;7.23;;;;;;;;;;5054480;28;20918;-45
2022/09/25 03:01:14;;;;;;;12.07;7.90;;;;;;;;;;5055171;28;20215;-45
2022/09/25 03:03:41;;;;;;;8.30;6.30;;;;;;;;;;5055223;28;20219;-45
2022/09/25 03:06:08;;;;;;;14.50;7.37;;;;;;;;;;5055039;28;20192;-46
2022/09/25 03:08:36;;;;;;;10.97;7.33;;;;;;;;;;5055011;28;20216;-46
2022/09/25 03:11:02;;;;;;;11.70;6.70;;;;;;;;;;5054168;28;20203;-45
2022/09/25 03:13:32;;;;;;;9.53;6.10;;;;;;;;;;5052271;28;20246;-46
2022/09/25 03:16:00;;;;;;;10.60;7.27;;;;;;;;;;5051877;28;20204;-46
2022/09/25 03:18:27;;;;;;;10.87;6.97;;;;;;;;;;5054574;28;20204;-45
2022/09/25 03:20:53;;;;;;;9.57;7.23;;;;;;;;;;5054322;28;20201;-46
2022/09/25 03:23:19;;;;;;;11.63;6.03;;;;;;;;;;5054276;28;20200;-46
2022/09/25 03:25:46;;;;;;;9.00;7.13;;;;;;;;;;5054094;28;20200;-46
2022/09/25 03:28:13;;;;;;;9.30;6.03;;;;;;;;;;5053378;28;20236;-46
2022/09/25 03:30:39;;;;;;;10.47;5.93;;;;;;;;;;5053969;28;20255;-45
2022/09/25 03:33:06;;;;;;;10.13;5.93;;;;;;;;;;5054207;28;20200;-46
2022/09/25 03:35:32;;;;;;;11.33;6.07;;;;;;;;;;5054175;28;20648;-46
2022/09/25 03:37:58;;;;;;;11.80;6.63;;;;;;;;;;5054060;28;20685;-46
2022/09/25 03:40:24;;;;;;;12.73;6.70;;;;;;;;;;5054108;28;20192;-46
2022/09/25 03:42:51;;;;;;;11.83;6.80;;;;;;;;;;5053639;28;20237;-46
2022/09/25 03:45:17;;;;;;;12.60;6.60;;;;;;;;;;5053020;28;20204;-46
2022/09/25 03:47:43;;;;;;;12.07;6.07;;;;;;;;;;5053849;28;20196;-46
2022/09/25 03:50:09;;;;;;;13.00;6.03;;;;;;;;;;5053803;28;20204;-46
2022/09/25 03:52:35;;;;;;;10.50;6.37;;;;;;;;;;5052393;28;20595;-45
2022/09/25 03:55:01;;;;;;;9.47;5.80;;;;;;;;;;5053644;28;20200;-46
2022/09/25 03:57:27;;;;;;;10.43;7.27;;;;;;;;;;5053041;28;20693;-46
2022/09/25 03:59:54;;;;;;;14.83;7.37;;;;;;;;;;5053110;28;20223;-46
2022/09/25 04:02:20;;;;;;;10.80;7.07;;;;;;;;;;5053457;28;20691;-46
2022/09/25 04:04:46;;;;;;;8.73;6.40;;;;;;;;;;5053519;28;20203;-46
2022/09/25 04:07:12;;;;;;;10.40;6.60;;;;;;;;;;5053242;28;20635;-46
2022/09/25 04:09:38;;;;;;;7.63;5.87;;;;;;;;;;5053562;28;20296;-46
2022/09/25 04:12:07;;;;;;;13.03;6.63;;;;;;;;;;5052852;28;20207;-45
2022/09/25 04:14:33;;;;;;;8.73;6.23;;;;;;;;;;5053331;28;20577;-46
2022/09/25 04:17:00;;;;;;;8.93;6.37;;;;;;;;;;5053207;28;20192;-46
2022/09/25 04:19:26;;;;;;;8.73;5.80;;;;;;;;;;5053234;28;20212;-45
2022/09/25 04:21:52;;;;;;;6.80;5.30;;;;;;;;;;5053000;28;20299;-46
2022/09/25 04:27:03;;;;;;;8.70;6.13;;;;;;;;;;5052620;28;20673;-45
2022/09/25 04:29:31;;;;;;;9.17;6.77;;;;;;;;;;5053074;28;20192;-46
2022/09/25 04:34:42;;;;;;;12.17;6.67;;;;;;;;;;5053098;28;20188;-46
2022/09/25 04:37:09;;;;;;;11.53;5.73;;;;;;;;;;5052820;28;20703;-46
2022/09/25 04:39:35;;;;;;;14.57;6.40;;;;;;;;;;5052970;28;20212;-45
2022/09/25 04:42:01;;;;;;;12.37;6.67;;;;;;;;;;5052066;28;20218;-45
2022/09/25 04:44:28;;;;;;;7.83;5.57;;;;;;;;;;5052438;28;20192;-45
2022/09/25 04:46:54;;;;;;;8.43;5.37;;;;;;;;;;5052597;28;20192;-45
2022/09/25 04:49:20;;;;;;;8.87;5.07;;;;;;;;;;5052733;28;20287;-45
2022/09/25 04:51:48;;;;;;;9.57;4.67;;;;;;;;;;5052640;28;20287;-46
2022/09/25 04:54:15;;;;;;;10.17;4.83;;;;;;;;;;5052410;28;20221;-46
2022/09/25 04:56:42;;;;;;;6.10;4.20;;;;;;;;;;5051795;28;20208;-46
2022/09/25 04:59:10;;;;;;;9.03;4.10;;;;;;;;;;5051606;28;20201;-45
2022/09/25 05:01:37;;;;;;;7.20;3.77;;;;;;;;;;5052256;28;20223;-46
2022/09/25 05:04:03;;;;;;;4.80;3.47;;;;;;;;;;5051810;28;20251;-45
2022/09/25 05:06:29;;;;;;;5.87;3.60;;;;;;;;;;5052213;28;20196;-45
2022/09/25 05:08:57;;;;;;;8.50;3.97;;;;;;;;;;5052343;28;20220;-46
2022/09/25 05:11:24;;;;;;;9.60;3.73;;;;;;;;;;5052246;28;20263;-46
2022/09/25 05:13:50;;;;;;;12.07;4.67;;;;;;;;;;5050055;28;20192;-45
2022/09/25 05:16:16;;;;;;;7.33;4.00;;;;;;;;;;5051820;28;20291;-45
2022/09/25 05:18:42;;;;;;;5.97;3.70;;;;;;;;;;5052096;28;20287;-45
2022/09/25 05:21:08;;;;;;;6.50;3.97;;;;;;;;;;5051773;28;20697;-46
2022/09/25 05:23:34;;;;;;;7.93;3.50;;;;;;;;;;5051978;28;20200;-46
2022/09/25 05:26:01;;;;;;;4.97;3.30;;;;;;;;;;5050866;28;20258;-46
2022/09/25 05:28:27;;;;;;;6.30;3.67;;;;;;;;;;5051503;28;20739;-45
2022/09/25 05:30:54;;;;;;;5.37;3.50;;;;;;;;;;5051592;28;20240;-46
2022/09/25 05:33:20;;;;;;;10.03;4.03;;;;;;;;;;5051694;28;20204;-46
2022/09/25 05:35:47;;;;;;;4.23;3.17;;;;;;;;;;5051633;28;20244;-45
2022/09/25 05:38:13;;;;;;;11.43;4.47;;;;;;;;;;5051535;28;20208;-46
2022/09/25 05:40:39;;;;;;;12.33;4.13;;;;;;;;;;5051820;28;20192;-46
2022/09/25 05:43:07;;;;;;;6.90;3.47;;;;;;;;;;5051203;28;20216;-46
2022/09/25 05:45:34;;;;;;;5.93;3.53;;;;;;;;;;5051088;28;20298;-46
2022/09/25 05:48:01;;;;;;;7.27;4.30;;;;;;;;;;5050588;28;20200;-46
2022/09/25 05:50:27;;;;;;;7.03;4.07;;;;;;;;;;5050727;28;20678;-45
2022/09/25 05:52:54;;;;;;;9.37;3.73;;;;;;;;;;5050776;28;20208;-46
2022/09/25 05:55:20;;;;;;;8.17;4.40;;;;;;;;;;5050803;28;20231;-46
2022/09/25 05:57:46;;;;;;;8.77;4.60;;;;;;;;;;5050760;28;20227;-46
2022/09/25 06:00:15;;;;;;;7.33;5.20;;;;;;;;;;5050114;28;20709;-46
2022/09/25 06:02:41;;;;;;;12.67;7.50;;;;;;;;;;5051249;28;20240;-46
2022/09/25 06:05:07;;;;;;;12.57;6.10;;;;;;;;;;5051127;28;20295;-46
2022/09/25 06:07:33;;;;;;;6.13;4.90;;;;;;;;;;5051150;28;20220;-46
2022/09/25 06:09:59;;;;;;;7.23;5.17;;;;;;;;;;5050951;28;20207;-46
2022/09/25 06:12:28;;;;;;;9.37;4.07;;;;;;;;;;5051327;28;20919;-46
2022/09/25 06:14:54;;;;;;;5.90;3.90;;;;;;;;;;5050154;28;20204;-46
2022/09/25 06:17:21;;;;;;;7.77;4.27;;;;;;;;;;5051002;28;20566;-46
2022/09/25 06:19:48;;;;;;;12.57;4.57;;;;;;;;;;5050102;28;20196;-46
2022/09/25 06:22:14;;;;;;;6.33;3.90;;;;;;;;;;5050641;28;20355;-46
2022/09/25 06:24:40;;;;;;;8.80;4.13;;;;;;;;;;5050963;28;20568;-46
2022/09/25 06:27:06;;;;;;;9.77;4.83;;;;;;;;;;5050909;28;20202;-46
2022/09/25 06:29:32;;;;;;;6.40;3.83;;;;;;;;;;5050693;28;20713;-46
2022/09/25 06:31:58;;;;;;;6.20;3.67;;;;;;;;;;5050624;28;20319;-46
2022/09/25 06:34:27;;;;;;;10.67;4.47;;;;;;;;;;5050995;28;20196;-46
2022/09/25 06:36:53;;;;;;;8.13;4.03;;;;;;;;;;5050725;28;20210;-46
2022/09/25 06:39:19;;;;;;;13.17;4.50;;;;;;;;;;5050793;28;20206;-46
2022/09/25 06:41:45;;;;;;;12.80;4.60;;;;;;;;;;5050630;28;20303;-46
2022/09/25 06:44:11;;;;;;;9.73;4.43;;;;;;;;;;5050564;28;20234;-46
2022/09/25 06:46:37;;;;;;;6.63;4.00;;;;;;;;;;5050284;28;20565;-46
2022/09/25 06:49:03;;;;;;;7.83;4.03;;;;;;;;;;5050440;28;20295;-46
2022/09/25 06:51:34;;;;;;;8.47;5.10;;;;;;;;;;5050906;28;20196;-45
2022/09/25 06:54:00;;;;;;;8.47;5.07;;;;;;;;;;5050674;28;20218;-45
2022/09/25 06:56:26;;;;;;;6.90;4.50;;;;;;;;;;5049081;28;20196;-46
2022/09/25 06:58:52;;;;;;;9.90;4.90;;;;;;;;;;5050281;28;20196;-46
2022/09/25 07:01:18;;;;;;;8.67;4.90;;;;;;;;;;5050386;28;20211;-46
2022/09/25 07:03:44;;;;;;;8.40;5.33;;;;;;;;;;5048504;28;20208;-46
2022/09/25 07:06:11;;;;;;;11.57;5.57;;;;;;;;;;5049597;28;20503;-46
2022/09/25 07:08:48;;;;;;;11.23;5.40;;;;;;;;;;5050029;28;20219;-47
2022/09/25 07:11:15;;;;;;;7.60;4.90;;;;;;;;;;5049847;28;20207;-47
2022/09/25 07:13:42;;;;;;;7.23;4.37;;;;;;;;;;5047471;28;20208;-46
2022/09/25 07:16:11;;;;;;;6.07;4.00;;;;;;;;;;5048908;28;20192;-45
2022/09/25 07:18:37;;;;;;;7.83;4.03;;;;;;;;;;5048728;28;20206;-46
2022/09/25 07:21:04;;;;;;;8.73;4.40;;;;;;;;;;5048454;28;20219;-45
2022/09/25 07:23:32;;;;;;;7.90;4.20;;;;;;;;;;5046894;28;20234;-46
2022/09/25 07:26:04;;;;;;;12.10;4.40;;;;;;;;;;5048723;28;20242;-46
2022/09/25 07:28:30;;;;;;;8.47;4.03;;;;;;;;;;5054142;28;20651;-46
2022/09/25 07:30:56;;;;;;;7.23;3.87;;;;;;;;;;5051992;28;20339;-46
2022/09/25 07:33:23;;;;;;;6.97;3.40;;;;;;;;;;5052287;28;20283;-46
2022/09/25 07:35:50;;;;;;;6.63;3.17;;;;;;;;;;5052177;28;20612;-46
2022/09/25 07:38:16;;;;;;;9.20;3.80;;;;;;;;;;5053971;28;20204;-46
2022/09/25 07:40:42;;;;;;;6.37;3.60;;;;;;;;;;5052157;28;20665;-46
2022/09/25 07:43:09;;;;;;;7.57;3.10;;;;;;;;;;5051981;28;20228;-46
2022/09/25 07:45:35;;;;;;;4.47;3.53;;;;;;;;;;5053872;28;20211;-46
2022/09/25 07:48:03;;;;;;;5.93;3.10;;;;;;;;;;5053482;28;20668;-46
2022/09/25 07:50:29;;;;;;;5.67;3.40;;;;;;;;;;5051900;28;20195;-46
2022/09/25 07:52:55;;;;;;;6.90;4.53;;;;;;;;;;5053776;28;20192;-48
2022/09/25 07:55:22;;;;;;;6.23;4.33;;;;;;;;;;5052041;28;20667;-47
2022/09/25 07:57:49;;;;;;;9.37;4.03;;;;;;;;;;5053657;28;20200;-47
2022/09/25 08:00:17;;;;;;;6.40;4.17;;;;;;;;;;5053494;28;20208;-60
2022/09/25 08:02:43;;;;;;;6.00;3.57;;;;;;;;;;5052522;28;20267;-60
2022/09/25 08:05:10;;;;;;;5.33;3.90;;;;;;;;;;5053640;28;20204;-60
2022/09/25 08:07:36;;;;;;;7.43;4.00;;;;;;;;;;5052850;28;20223;-61
2022/09/25 08:10:02;;;;;;;7.13;4.70;;;;;;;;;;5052407;28;20196;-47
2022/09/25 08:12:28;;;;;;;7.27;4.20;;;;;;;;;;5051689;28;20196;-46
2022/09/25 08:14:55;;;;;;;4.67;3.87;;;;;;;;;;5051286;28;20192;-46
2022/09/25 08:17:22;;;;;;;4.80;3.53;;;;;;;;;;5051190;28;20891;-46
2022/09/25 08:19:48;;;;;;;8.00;4.37;;;;;;;;;;5051039;28;20192;-47
2022/09/25 08:22:14;;;;;;;4.17;2.80;;;;;;;;;;5052712;28;20220;-46
2022/09/25 08:24:40;;;;;;;13.93;12.57;;;;;;;;;;5053278;28;20251;-46
2022/09/25 08:27:06;;;;;;;5.43;4.67;;;;;;;;;;5052690;28;20651;-45
2022/09/25 08:29:32;;;;;;;5.47;3.83;;;;;;;;;;5051259;28;20207;-46
2022/09/25 08:31:59;;;;;;;8.67;6.87;;;;;;;;;;5052722;28;20228;-46
2022/09/25 08:34:26;;;;;;;5.17;3.77;;;;;;;;;;5052994;28;20279;-46
2022/09/25 08:36:53;;;;;;;6.07;3.70;;;;;;;;;;5050453;28;20296;-45
2022/09/25 08:39:19;;;;;;;4.43;3.37;;;;;;;;;;5051426;28;20200;-46
2022/09/25 08:41:46;;;;;;;3.90;3.50;;;;;;;;;;5052535;28;20224;-46
2022/09/25 08:44:18;;;;;;;5.50;3.57;;;;;;;;;;5052295;28;20290;-46
2022/09/25 08:49:34;;;;;;;5.83;3.23;;;;;;;;;;5051547;28;20195;-46
2022/09/25 08:52:02;;;;;;;6.10;4.40;;;;;;;;;;5052266;28;20192;-46
2022/09/25 08:54:30;;;;;;;7.33;3.70;;;;;;;;;;5050298;28;20196;-46
2022/09/25 08:57:00;;;;;;;6.17;3.40;;;;;;;;;;5050185;28;20192;-46
2022/09/25 08:59:29;;;;;;;4.63;3.10;;;;;;;;;;5050652;28;20196;-46
2022/09/25 09:01:57;;;;;;;4.83;3.43;;;;;;;;;;5050570;28;20259;-47
2022/09/25 09:04:25;;;;;;;6.63;4.10;;;;;;;;;;5050479;28;20200;-46
2022/09/25 09:06:54;;;;;;;8.03;7.20;;;;;;;;;;5051750;28;20192;-46
2022/09/25 09:09:23;;;;;;;12.67;8.23;;;;;;;;;;5052159;28;20208;-46
2022/09/25 09:11:51;;;;;;;32.57;24.10;;;;;;;;;;5051846;28;20212;-46
2022/09/25 09:14:19;;;;;;;47.40;37.63;;;;;;;;;;5050217;28;20196;-46
2022/09/25 09:16:48;;;;;;;60.30;49.33;;;;;;;;;;5051629;28;20200;-47
2022/09/25 09:19:14;;;;;;;8.77;7.13;;;;;;;;;;5051106;28;20264;-47
2022/09/25 09:21:44;;;;;;;28.70;22.93;;;;;;;;;;5051805;28;20648;-47
2022/09/25 09:24:14;;;;;;;18.97;15.23;;;;;;;;;;5049595;28;20246;-47
2022/09/25 09:26:49;;;;;;;7.60;4.17;;;;;;;;;;5052036;28;20306;-46
2022/09/25 09:29:32;;;;;;;3.70;2.97;;;;;;;;;;5051428;28;20199;-47
2022/09/25 09:32:02;;;;;;;27.93;23.53;;;;;;;;;;5038572;28;20237;-47
2022/09/25 09:34:34;;;;;;;49.57;39.07;;;;;;;;;;5051515;28;20650;-47
2022/09/25 09:37:03;;;;;;;29.23;25.07;;;;;;;;;;5051569;28;20221;-47
2022/09/25 09:39:35;;;;;;;20.80;15.43;;;;;;;;;;5051440;28;20201;-46
2022/09/25 09:42:08;;;;;;;107.83;82.20;;;;;;;;;;5051307;28;20588;-46
2022/09/25 09:44:48;;;;;;;128.70;103.17;;;;;;;;;;5049529;28;20187;-46
2022/09/25 09:47:21;;;;;;;38.10;34.03;;;;;;;;;;5049230;28;20205;-47
2022/09/25 09:49:50;;;;;;;9.33;7.37;;;;;;;;;;5049617;28;20198;-47
2022/09/25 09:52:18;;;;;;;10.77;9.57;;;;;;;;;;5051220;28;20209;-47
2022/09/25 09:54:49;;;;;;;7.13;4.87;;;;;;;;;;5047217;28;20218;-47
2022/09/25 09:57:30;;;;;;;48.27;43.53;;;;;;;;;;5048917;28;20223;-46
2022/09/25 09:59:57;;;;;;;47.17;42.40;;;;;;;;;;5051122;28;20298;-47
2022/09/25 10:02:30;;;;;;;17.23;15.43;;;;;;;;;;5051000;28;20285;-48
2022/09/25 10:04:56;;;;;;;11.57;10.37;;;;;;;;;;5051488;28;20704;-46
2022/09/25 10:07:23;;;;;;;2.10;1.73;;;;;;;;;;5049051;28;20286;-47
2022/09/25 10:09:50;;;;;;;2.20;1.70;;;;;;;;;;5051439;28;20203;-47
2022/09/25 10:12:24;;;;;;;3.37;1.80;;;;;;;;;;5050374;28;20199;-47
2022/09/25 10:14:50;;;;;;;3.00;1.90;;;;;;;;;;5050988;28;20656;-47
2022/09/25 10:17:17;;;;;;;2.20;1.30;;;;;;;;;;5051098;28;20240;-47
2022/09/25 10:19:47;;;;;;;3.03;1.50;;;;;;;;;;5051347;28;20204;-47
2022/09/25 10:22:15;;;;;;;3.10;1.80;;;;;;;;;;5049423;28;20223;-47
2022/09/25 10:24:54;;;;;;;3.27;1.97;;;;;;;;;;5050497;28;20591;-47
2022/09/25 10:27:21;;;;;;;4.10;1.40;;;;;;;;;;5049717;28;20572;-47
2022/09/25 10:30:00;;;;;;;5.10;1.83;;;;;;;;;;5050264;28;20208;-47
2022/09/25 10:32:26;;;;;;;4.77;2.43;;;;;;;;;;5050193;28;21000;-47
2022/09/25 10:34:52;;;;;;;3.63;3.07;;;;;;;;;;5048241;28;20286;-47
2022/09/25 10:37:20;;;;;;;8.50;2.23;;;;;;;;;;5051101;28;20197;-47
2022/09/25 10:39:59;;;;;;;2.90;1.70;;;;;;;;;;5050533;28;20204;-47
2022/09/25 10:42:36;;;;;;;1.97;1.60;;;;;;;;;;5050728;28;20227;-47
2022/09/25 10:45:15;;;;;;;2.50;1.43;;;;;;;;;;5051146;28;20196;-47
2022/09/25 10:50:26;;;;;;;3.40;1.23;;;;;;;;;;5051404;28;20243;-47
2022/09/25 10:52:57;;;;;;;2.60;1.27;;;;;;;;;;5051014;28;20196;-47
2022/09/25 10:55:29;;;;;;;1.83;1.47;;;;;;;;;;5051489;28;20265;-47
2022/09/25 10:58:03;;;;;;;3.27;1.60;;;;;;;;;;5050874;28;20196;-47
2022/09/25 11:00:29;;;;;;;3.37;3.03;;;;;;;;;;5051142;28;20206;-47
2022/09/25 11:02:58;;;;;;;2.37;1.43;;;;;;;;;;5054352;28;20227;-47
2022/09/25 11:05:25;;;;;;;3.13;1.20;;;;;;;;;;5054539;28;20211;-46
2022/09/25 11:07:53;;;;;;;3.27;1.00;;;;;;;;;;5054538;28;20220;-48
2022/09/25 11:10:20;;;;;;;3.77;1.60;;;;;;;;;;5055209;28;20666;-47
2022/09/25 11:12:48;;;;;;;3.07;1.80;;;;;;;;;;5054540;28;20203;-47
2022/09/25 11:15:17;;;;;;;2.63;1.70;;;;;;;;;;5054257;28;20204;-48
2022/09/25 11:17:44;;;;;;;3.53;1.40;;;;;;;;;;5054907;28;20230;-47
2022/09/25 11:20:12;;;;;;;1.93;1.23;;;;;;;;;;5054232;28;20200;-47
2022/09/25 11:22:41;;;;;;;2.93;1.30;;;;;;;;;;5054742;28;20239;-47
2022/09/25 11:25:11;;;;;;;2.70;1.50;;;;;;;;;;5053847;28;20202;-47
2022/09/25 11:27:41;;;;;;;4.37;3.20;;;;;;;;;;5053832;28;20570;-47
2022/09/25 11:30:11;;;;;;;3.47;2.93;;;;;;;;;;5053810;28;20240;-47
2022/09/25 11:32:41;;;;;;;2.10;1.83;;;;;;;;;;5054359;28;20207;-47
2022/09/25 11:35:26;;;;;;;2.67;1.60;;;;;;;;;;5053959;28;20247;-47
2022/09/25 11:38:04;;;;;;;4.20;2.10;;;;;;;;;;5054086;28;20192;-47
2022/09/25 11:43:26;;;;;;;4.03;1.87;;;;;;;;;;5054103;28;20227;-47
2022/09/25 11:45:55;;;;;;;2.33;1.90;;;;;;;;;;5054230;28;20200;-47
2022/09/25 11:48:24;;;;;;;3.97;1.40;;;;;;;;;;5053689;28;20284;-47
2022/09/25 11:50:57;;;;;;;3.00;1.83;;;;;;;;;;5054150;28;20203;-47
2022/09/25 11:53:26;;;;;;;1.40;1.20;;;;;;;;;;5054085;28;20188;-47
2022/09/25 11:55:58;;;;;;;1.50;1.10;;;;;;;;;;5054253;28;20247;-47
2022/09/25 11:58:39;;;;;;;1.90;1.80;;;;;;;;;;5053689;28;20283;-47
2022/09/25 12:01:15;;;;;;;1.73;1.40;;;;;;;;;;5051622;28;20279;-47
2022/09/25 12:03:51;;;;;;;1.77;1.30;;;;;;;;;;5053248;28;20710;-47
2022/09/25 12:06:25;;;;;;;1.43;1.00;;;;;;;;;;5053794;28;20209;-47
2022/09/25 12:08:59;;;;;;;3.10;1.30;;;;;;;;;;5054308;28;20219;-47
2022/09/25 12:11:30;;;;;;;1.27;1.07;;;;;;;;;;5053584;28;20236;-47
2022/09/25 12:14:00;;;;;;;1.60;1.20;;;;;;;;;;5053054;28;20196;-47
2022/09/25 12:16:32;;;;;;;1.97;1.20;;;;;;;;;;5053908;28;20716;-47
2022/09/25 12:19:12;;;;;;;1.90;1.13;;;;;;;;;;5054090;28;20350;-47
2022/09/25 12:21:42;;;;;;;2.77;1.10;;;;;;;;;;5052317;28;20211;-47
2022/09/25 12:24:11;;;;;;;1.80;1.50;;;;;;;;;;5053004;28;20214;-46
2022/09/25 12:26:40;;;;;;;4.27;3.13;;;;;;;;;;5053417;28;20200;-46
2022/09/25 12:29:12;;;;;;;9.87;8.43;;;;;;;;;;5053424;28;20284;-46
2022/09/25 12:31:45;;;;;;;3.07;1.70;;;;;;;;;;5052697;28;20326;-45
2022/09/25 12:34:16;;;;;;;2.60;1.47;;;;;;;;;;5052241;28;20293;-47
2022/09/25 12:36:44;;;;;;;3.03;2.67;;;;;;;;;;5053357;28;20237;-48
2022/09/25 12:39:20;;;;;;;6.07;4.63;;;;;;;;;;5053269;28;20272;-47
2022/09/25 12:41:48;;;;;;;4.47;1.90;;;;;;;;;;5053056;28;20312;-48
2022/09/25 12:44:17;;;;;;;7.17;3.00;;;;;;;;;;5052963;28;20199;-46
2022/09/25 12:46:48;;;;;;;1.97;1.67;;;;;;;;;;5052902;28;20201;-46
2022/09/25 12:49:17;;;;;;;1.97;1.27;;;;;;;;;;5052982;28;20190;-46
2022/09/25 12:51:45;;;;;;;3.37;2.43;;;;;;;;;;5052920;28;20202;-46
2022/09/25 12:54:15;;;;;;;4.10;1.60;;;;;;;;;;5052500;28;20640;-47
2022/09/25 12:56:45;;;;;;;7.80;5.93;;;;;;;;;;5053024;28;20192;-46
2022/09/25 12:59:14;;;;;;;7.67;6.87;;;;;;;;;;5052566;28;20676;-45
2022/09/25 13:01:45;;;;;;;13.67;12.37;;;;;;;;;;5051479;28;20216;-46
2022/09/25 13:04:33;;;;;;;4.27;3.40;;;;;;;;;;5052490;28;20647;-47
2022/09/25 13:07:04;;;;;;;2.70;2.10;;;;;;;;;;5052719;28;20211;-47
2022/09/25 13:09:34;;;;;;;16.00;13.17;;;;;;;;;;5052661;28;20208;-47
2022/09/25 13:12:04;;;;;;;8.50;7.53;;;;;;;;;;5052636;28;20205;-48
2022/09/25 13:14:33;;;;;;;6.97;4.43;;;;;;;;;;5056961;28;20211;-48
2022/09/25 13:17:00;;;;;;;20.87;17.53;;;;;;;;;;5071945;28;20197;-48
2022/09/25 13:19:28;;;;;;;36.00;25.87;;;;;;;;;;5069726;28;20242;-48
2022/09/25 13:22:15;;;;;;;50.43;32.97;;;;;;;;;;5069996;28;20204;-48
2022/09/25 13:24:43;;;;;;;34.63;22.83;;;;;;;;;;5061050;28;20304;-47
2022/09/25 13:27:13;;;;;;;34.03;23.97;;;;;;;;;;5069753;28;20188;-49
2022/09/25 13:29:40;;;;;;;15.40;8.50;;;;;;;;;;5068810;28;20196;-48
2022/09/25 13:32:07;;;;;;;7.43;2.57;;;;;;;;;;5060962;28;20634;-49
2022/09/25 13:34:37;;;;;;;2.80;1.60;;;;;;;;;;5049363;28;20580;-48
2022/09/25 13:37:04;;;;;;;3.90;1.60;;;;;;;;;;5049569;28;20205;-48
2022/09/25 13:42:22;;;;;;;4.30;1.90;;;;;;;;;;5051077;28;20592;-48
2022/09/25 13:44:50;;;;;;;6.07;4.93;;;;;;;;;;5051074;28;20665;-48
2022/09/25 13:47:35;;;;;;;17.20;12.33;;;;;;;;;;5049656;28;20198;-49
2022/09/25 13:50:16;;;;;;;12.00;8.10;;;;;;;;;;5049691;28;20199;-47
2022/09/25 13:53:16;;;;;;;4.33;2.93;;;;;;;;;;5051666;28;20284;-47
2022/09/25 13:55:40;;;;;;;6.70;2.93;;;;;;;;;;5047275;28;20209;-47
2022/09/25 13:58:15;;;;;;;2.20;1.50;;;;;;;;;;5051286;28;20195;-47
2022/09/25 14:00:55;;;;;;;3.13;1.63;;;;;;;;;;5049465;28;20200;-47
2022/09/25 14:03:34;;;;;;;4.27;1.13;;;;;;;;;;5050240;28;20753;-49
2022/09/25 14:06:02;;;;;;;2.37;1.23;;;;;;;;;;5051060;28;20689;-49
2022/09/25 14:08:29;;;;;;;3.60;1.30;;;;;;;;;;5051546;28;20233;-48
2022/09/25 14:10:56;;;;;;;3.20;1.47;;;;;;;;;;5051356;28;20272;-48
2022/09/25 14:13:24;;;;;;;4.13;1.30;;;;;;;;;;5047268;28;20201;-48
2022/09/25 14:15:51;;;;;;;2.60;1.27;;;;;;;;;;5049175;28;20200;-48
2022/09/25 14:18:23;;;;;;;2.03;1.00;;;;;;;;;;5049049;28;20205;-48
2022/09/25 14:20:50;;;;;;;2.37;1.00;;;;;;;;;;5051065;28;20205;-48
2022/09/25 14:23:24;;;;;;;3.17;1.17;;;;;;;;;;5050770;28;20212;-48
2022/09/25 14:25:56;;;;;;;3.20;1.50;;;;;;;;;;5050945;28;20209;-48
2022/09/25 14:28:24;;;;;;;2.30;0.90;;;;;;;;;;5050876;28;20694;-49
2022/09/25 14:30:52;;;;;;;1.77;0.90;;;;;;;;;;5050968;28;20232;-49
2022/09/25 14:33:26;;;;;;;3.00;1.20;;;;;;;;;;5050788;28;20221;-46
2022/09/25 14:35:56;;;;;;;2.37;1.30;;;;;;;;;;5050394;28;20590;-49
2022/09/25 14:38:36;;;;;;;2.70;1.23;;;;;;;;;;5050734;28;20196;-47
2022/09/25 14:41:20;;;;;;;2.27;1.13;;;;;;;;;;5050999;28;20571;-47
2022/09/25 14:43:56;;;;;;;2.87;1.20;;;;;;;;;;5050971;28;20227;-47
2022/09/25 14:46:22;;;;;;;3.17;1.10;;;;;;;;;;5050870;28;20593;-48
2022/09/25 14:48:50;;;;;;;3.37;1.30;;;;;;;;;;5050741;28;20235;-47
2022/09/25 14:51:20;;;;;;;4.80;2.97;;;;;;;;;;5050957;28;20192;-48
2022/09/25 14:53:52;;;;;;;3.67;2.60;;;;;;;;;;5050846;28;20193;-48
2022/09/25 14:56:18;;;;;;;3.23;2.00;;;;;;;;;;5050706;28;20212;-48
2022/09/25 14:58:46;;;;;;;2.30;1.80;;;;;;;;;;5050690;28;20567;-48
2022/09/25 15:01:16;;;;;;;2.07;1.67;;;;;;;;;;5047530;28;20206;-48
2022/09/25 15:03:45;;;;;;;1.57;1.37;;;;;;;;;;5048143;28;20317;-48
2022/09/25 15:06:11;;;;;;;1.53;1.07;;;;;;;;;;5048395;28;20238;-48